sensor_id;sensor_type;location;lat;lon;timestamp;pressure;altitude;pressure_sealevel;temperature;humidity
23172;BME280;11754;42.664;23.594;2023-12-20T00:03:36;95798.44;;;1.02;71.95
23172;BME280;11754;42.664;23.594;2023-12-20T00:06:02;95809.47;;;1.06;71.65
23172;BME280;11754;42.664;23.594;2023-12-20T00:08:27;95797.63;;;1.02;71.62
23172;BME280;11754;42.664;23.594;2023-12-20T00:10:53;95801.25;;;0.99;71.65
23172;BME280;11754;42.664;23.594;2023-12-20T00:13:18;95792.81;;;0.95;71.85
23172;BME280;11754;42.664;23.594;2023-12-20T00:15:44;95784.59;;;0.89;72.17
23172;BME280;11754;42.664;23.594;2023-12-20T00:18:09;95784.78;;;0.86;72.48
23172;BME280;11754;42.664;23.594;2023-12-20T00:20:35;95784.06;;;0.84;72.60
23172;BME280;11754;42.664;23.594;2023-12-20T00:23:01;95793.72;;;0.82;72.84
23172;BME280;11754;42.664;23.594;2023-12-20T00:25:39;95787.06;;;0.78;72.72
23172;BME280;11754;42.664;23.594;2023-12-20T00:28:05;95785.78;;;0.70;72.97
23172;BME280;11754;42.664;23.594;2023-12-20T00:30:31;95783.75;;;0.61;73.46
23172;BME280;11754;42.664;23.594;2023-12-20T00:32:56;95780.63;;;0.56;73.58
23172;BME280;11754;42.664;23.594;2023-12-20T00:35:22;95770.56;;;0.52;73.66
23172;BME280;11754;42.664;23.594;2023-12-20T00:37:47;95772.50;;;0.48;73.65
23172;BME280;11754;42.664;23.594;2023-12-20T00:40:13;95766.00;;;0.55;73.20
23172;BME280;11754;42.664;23.594;2023-12-20T00:42:38;95763.59;;;0.52;73.14
23172;BME280;11754;42.664;23.594;2023-12-20T00:45:04;95762.09;;;0.62;72.10
23172;BME280;11754;42.664;23.594;2023-12-20T00:47:31;95748.34;;;0.60;71.98
23172;BME280;11754;42.664;23.594;2023-12-20T00:49:57;95752.69;;;0.47;72.14
23172;BME280;11754;42.664;23.594;2023-12-20T00:52:23;95764.38;;;0.40;72.17
23172;BME280;11754;42.664;23.594;2023-12-20T00:54:48;95756.78;;;0.37;71.92
23172;BME280;11754;42.664;23.594;2023-12-20T00:57:32;95756.44;;;0.29;72.59
23172;BME280;11754;42.664;23.594;2023-12-20T00:59:58;95756.09;;;0.20;72.60
23172;BME280;11754;42.664;23.594;2023-12-20T01:02:23;95751.28;;;0.14;73.20
23172;BME280;11754;42.664;23.594;2023-12-20T01:04:49;95741.84;;;0.13;73.68
23172;BME280;11754;42.664;23.594;2023-12-20T01:07:14;95737.88;;;0.08;73.60
23172;BME280;11754;42.664;23.594;2023-12-20T01:09:40;95731.66;;;0.10;73.44
23172;BME280;11754;42.664;23.594;2023-12-20T01:12:05;95724.63;;;0.12;73.59
23172;BME280;11754;42.664;23.594;2023-12-20T01:14:31;95726.19;;;0.15;73.33
23172;BME280;11754;42.664;23.594;2023-12-20T01:16:56;95732.91;;;0.17;73.17
23172;BME280;11754;42.664;23.594;2023-12-20T01:19:22;95729.63;;;0.15;73.24
23172;BME280;11754;42.664;23.594;2023-12-20T01:21:49;95723.53;;;0.02;73.00
23172;BME280;11754;42.664;23.594;2023-12-20T01:24:14;95719.72;;;0.08;73.54
23172;BME280;11754;42.664;23.594;2023-12-20T01:26:40;95716.72;;;0.14;73.89
23172;BME280;11754;42.664;23.594;2023-12-20T01:29:05;95721.84;;;0.15;74.57
23172;BME280;11754;42.664;23.594;2023-12-20T01:31:30;95717.16;;;0.20;74.42
23172;BME280;11754;42.664;23.594;2023-12-20T01:33:56;95716.78;;;0.27;74.12
23172;BME280;11754;42.664;23.594;2023-12-20T01:36:21;95714.72;;;0.32;74.23
23172;BME280;11754;42.664;23.594;2023-12-20T01:38:47;95706.66;;;0.36;74.58
23172;BME280;11754;42.664;23.594;2023-12-20T01:41:12;95688.78;;;0.32;74.86
23172;BME280;11754;42.664;23.594;2023-12-20T01:43:38;95691.69;;;0.27;75.46
23172;BME280;11754;42.664;23.594;2023-12-20T01:46:04;95680.47;;;0.27;75.25
23172;BME280;11754;42.664;23.594;2023-12-20T01:48:29;95681.56;;;0.37;75.45
23172;BME280;11754;42.664;23.594;2023-12-20T01:50:58;95671.81;;;0.53;74.84
23172;BME280;11754;42.664;23.594;2023-12-20T01:53:25;95676.22;;;0.65;74.40
23172;BME280;11754;42.664;23.594;2023-12-20T01:55:52;95673.28;;;0.57;74.78
23172;BME280;11754;42.664;23.594;2023-12-20T01:58:19;95656.31;;;0.39;75.97
23172;BME280;11754;42.664;23.594;2023-12-20T02:00:45;95660.16;;;0.33;76.83
23172;BME280;11754;42.664;23.594;2023-12-20T02:03:11;95655.47;;;0.26;78.03
23172;BME280;11754;42.664;23.594;2023-12-20T02:05:37;95659.97;;;0.36;77.57
23172;BME280;11754;42.664;23.594;2023-12-20T02:08:04;95651.25;;;0.37;78.42
23172;BME280;11754;42.664;23.594;2023-12-20T02:10:31;95642.81;;;0.34;79.22
23172;BME280;11754;42.664;23.594;2023-12-20T02:12:57;95650.69;;;0.32;79.89
23172;BME280;11754;42.664;23.594;2023-12-20T02:15:22;95650.22;;;0.40;79.77
23172;BME280;11754;42.664;23.594;2023-12-20T02:17:48;95651.47;;;0.47;79.69
23172;BME280;11754;42.664;23.594;2023-12-20T02:20:14;95645.28;;;0.62;79.21
23172;BME280;11754;42.664;23.594;2023-12-20T02:22:39;95641.94;;;0.60;78.79
23172;BME280;11754;42.664;23.594;2023-12-20T02:25:05;95635.91;;;0.60;79.02
23172;BME280;11754;42.664;23.594;2023-12-20T02:27:31;95625.75;;;0.69;78.27
23172;BME280;11754;42.664;23.594;2023-12-20T02:29:56;95626.78;;;0.67;78.30
23172;BME280;11754;42.664;23.594;2023-12-20T02:32:22;95631.88;;;0.68;78.67
23172;BME280;11754;42.664;23.594;2023-12-20T02:34:51;95616.44;;;0.80;77.67
23172;BME280;11754;42.664;23.594;2023-12-20T02:37:17;95619.53;;;0.85;77.60
23172;BME280;11754;42.664;23.594;2023-12-20T02:39:42;95612.03;;;0.93;76.31
23172;BME280;11754;42.664;23.594;2023-12-20T02:42:08;95611.94;;;0.82;76.19
23172;BME280;11754;42.664;23.594;2023-12-20T02:44:33;95613.81;;;0.54;76.79
23172;BME280;11754;42.664;23.594;2023-12-20T02:46:59;95620.94;;;0.38;77.64
23172;BME280;11754;42.664;23.594;2023-12-20T02:49:24;95615.88;;;0.09;78.22
23172;BME280;11754;42.664;23.594;2023-12-20T02:51:50;95608.41;;;0.17;79.26
23172;BME280;11754;42.664;23.594;2023-12-20T02:54:15;95622.72;;;0.10;79.24
23172;BME280;11754;42.664;23.594;2023-12-20T02:56:41;95626.06;;;0.12;79.68
23172;BME280;11754;42.664;23.594;2023-12-20T02:59:06;95622.91;;;0.07;79.84
23172;BME280;11754;42.664;23.594;2023-12-20T03:01:34;95618.34;;;0.11;79.27
23172;BME280;11754;42.664;23.594;2023-12-20T03:04:00;95614.59;;;0.02;79.50
23172;BME280;11754;42.664;23.594;2023-12-20T03:06:26;95614.09;;;0.10;79.57
23172;BME280;11754;42.664;23.594;2023-12-20T03:08:51;95610.28;;;0.15;79.00
23172;BME280;11754;42.664;23.594;2023-12-20T03:11:17;95611.94;;;0.16;79.08
23172;BME280;11754;42.664;23.594;2023-12-20T03:13:42;95605.31;;;0.12;78.52
23172;BME280;11754;42.664;23.594;2023-12-20T03:16:12;95613.22;;;0.23;78.70
23172;BME280;11754;42.664;23.594;2023-12-20T03:18:37;95616.31;;;0.16;78.89
23172;BME280;11754;42.664;23.594;2023-12-20T03:21:04;95621.66;;;0.00;78.72
23172;BME280;11754;42.664;23.594;2023-12-20T03:23:30;95609.34;;;0.16;79.06
23172;BME280;11754;42.664;23.594;2023-12-20T03:25:56;95611.75;;;0.19;78.13
23172;BME280;11754;42.664;23.594;2023-12-20T03:28:22;95606.66;;;0.18;78.62
23172;BME280;11754;42.664;23.594;2023-12-20T03:30:48;95613.59;;;0.17;78.91
23172;BME280;11754;42.664;23.594;2023-12-20T03:33:14;95604.63;;;-0.04;78.01
23172;BME280;11754;42.664;23.594;2023-12-20T03:35:39;95610.22;;;-0.10;78.35
23172;BME280;11754;42.664;23.594;2023-12-20T03:38:04;95607.31;;;-0.06;79.00
23172;BME280;11754;42.664;23.594;2023-12-20T03:40:30;95602.91;;;0.09;78.28
23172;BME280;11754;42.664;23.594;2023-12-20T03:42:55;95600.13;;;0.12;78.18
23172;BME280;11754;42.664;23.594;2023-12-20T03:45:21;95599.44;;;-0.04;77.57
23172;BME280;11754;42.664;23.594;2023-12-20T03:47:46;95592.75;;;-0.21;78.21
23172;BME280;11754;42.664;23.594;2023-12-20T03:50:13;95605.66;;;-0.07;78.90
23172;BME280;11754;42.664;23.594;2023-12-20T03:52:38;95598.66;;;0.08;78.47
23172;BME280;11754;42.664;23.594;2023-12-20T03:55:04;95602.50;;;0.15;78.05
23172;BME280;11754;42.664;23.594;2023-12-20T03:57:29;95594.31;;;0.21;78.33
23172;BME280;11754;42.664;23.594;2023-12-20T03:59:55;95585.41;;;0.26;79.02
23172;BME280;11754;42.664;23.594;2023-12-20T04:02:20;95581.88;;;0.27;79.55
23172;BME280;11754;42.664;23.594;2023-12-20T04:04:46;95584.16;;;0.31;79.35
23172;BME280;11754;42.664;23.594;2023-12-20T04:07:11;95584.78;;;0.35;79.04
23172;BME280;11754;42.664;23.594;2023-12-20T04:09:37;95580.00;;;0.29;79.21
23172;BME280;11754;42.664;23.594;2023-12-20T04:12:03;95575.03;;;0.26;79.89
23172;BME280;11754;42.664;23.594;2023-12-20T04:14:28;95576.03;;;0.10;79.88
23172;BME280;11754;42.664;23.594;2023-12-20T04:16:54;95573.91;;;-0.10;80.50
23172;BME280;11754;42.664;23.594;2023-12-20T04:19:35;95567.78;;;-0.09;80.77
23172;BME280;11754;42.664;23.594;2023-12-20T04:22:00;95575.13;;;-0.16;80.70
23172;BME280;11754;42.664;23.594;2023-12-20T04:24:26;95571.59;;;-0.15;80.99
23172;BME280;11754;42.664;23.594;2023-12-20T04:26:51;95568.66;;;-0.23;80.70
23172;BME280;11754;42.664;23.594;2023-12-20T04:29:16;95571.38;;;-0.25;81.25
23172;BME280;11754;42.664;23.594;2023-12-20T04:31:42;95566.91;;;-0.22;81.42
23172;BME280;11754;42.664;23.594;2023-12-20T04:34:07;95564.44;;;-0.11;80.64
23172;BME280;11754;42.664;23.594;2023-12-20T04:36:33;95555.91;;;0.01;80.23
23172;BME280;11754;42.664;23.594;2023-12-20T04:38:59;95554.25;;;0.00;80.64
23172;BME280;11754;42.664;23.594;2023-12-20T04:41:25;95542.63;;;0.06;81.14
23172;BME280;11754;42.664;23.594;2023-12-20T04:43:50;95545.31;;;0.04;80.90
23172;BME280;11754;42.664;23.594;2023-12-20T04:46:16;95551.09;;;-0.05;81.88
23172;BME280;11754;42.664;23.594;2023-12-20T04:48:41;95550.28;;;0.07;80.80
23172;BME280;11754;42.664;23.594;2023-12-20T04:51:07;95548.13;;;0.14;80.70
23172;BME280;11754;42.664;23.594;2023-12-20T04:53:32;95548.03;;;0.15;81.27
23172;BME280;11754;42.664;23.594;2023-12-20T04:55:58;95545.97;;;0.20;80.97
23172;BME280;11754;42.664;23.594;2023-12-20T04:58:23;95543.41;;;0.33;81.01
23172;BME280;11754;42.664;23.594;2023-12-20T05:00:49;95539.16;;;0.45;80.56
23172;BME280;11754;42.664;23.594;2023-12-20T05:03:14;95533.63;;;0.50;80.02
23172;BME280;11754;42.664;23.594;2023-12-20T05:05:40;95521.94;;;0.44;79.65
23172;BME280;11754;42.664;23.594;2023-12-20T05:08:05;95534.47;;;0.50;80.05
23172;BME280;11754;42.664;23.594;2023-12-20T05:10:31;95534.38;;;0.52;80.73
23172;BME280;11754;42.664;23.594;2023-12-20T05:12:56;95528.66;;;0.46;81.14
23172;BME280;11754;42.664;23.594;2023-12-20T05:15:22;95526.88;;;0.34;82.21
23172;BME280;11754;42.664;23.594;2023-12-20T05:17:47;95527.31;;;0.41;82.37
23172;BME280;11754;42.664;23.594;2023-12-20T05:20:13;95519.00;;;0.61;82.21
23172;BME280;11754;42.664;23.594;2023-12-20T05:22:38;95519.13;;;0.73;81.83
23172;BME280;11754;42.664;23.594;2023-12-20T05:25:04;95515.88;;;0.82;81.38
23172;BME280;11754;42.664;23.594;2023-12-20T05:30:54;95515.25;;;0.91;80.31
23172;BME280;11754;42.664;23.594;2023-12-20T05:33:20;95520.44;;;0.91;79.96
23172;BME280;11754;42.664;23.594;2023-12-20T05:35:45;95510.09;;;0.65;80.20
23172;BME280;11754;42.664;23.594;2023-12-20T05:38:11;95501.56;;;0.63;80.70
23172;BME280;11754;42.664;23.594;2023-12-20T05:40:36;95508.84;;;0.58;80.68
23172;BME280;11754;42.664;23.594;2023-12-20T05:57:43;95502.25;;;0.91;80.99
23172;BME280;11754;42.664;23.594;2023-12-20T06:00:09;95494.69;;;0.88;81.46
23172;BME280;11754;42.664;23.594;2023-12-20T06:02:35;95487.59;;;0.90;81.46
23172;BME280;11754;42.664;23.594;2023-12-20T06:05:03;95477.81;;;1.06;80.08
23172;BME280;11754;42.664;23.594;2023-12-20T06:07:29;95479.66;;;1.04;80.33
23172;BME280;11754;42.664;23.594;2023-12-20T06:09:55;95471.13;;;1.15;79.81
23172;BME280;11754;42.664;23.594;2023-12-20T06:12:21;95472.19;;;1.12;79.77
23172;BME280;11754;42.664;23.594;2023-12-20T06:14:46;95479.59;;;1.30;79.52
23172;BME280;11754;42.664;23.594;2023-12-20T06:17:24;95474.38;;;1.30;78.45
23172;BME280;11754;42.664;23.594;2023-12-20T06:19:49;95478.50;;;1.45;76.68
23172;BME280;11754;42.664;23.594;2023-12-20T06:22:15;95483.72;;;1.45;75.91
23172;BME280;11754;42.664;23.594;2023-12-20T06:24:41;95487.44;;;1.17;77.83
23172;BME280;11754;42.664;23.594;2023-12-20T06:27:06;95479.03;;;1.13;78.99
23172;BME280;11754;42.664;23.594;2023-12-20T06:29:32;95482.06;;;1.07;79.22
23172;BME280;11754;42.664;23.594;2023-12-20T06:31:57;95477.81;;;1.06;80.07
23172;BME280;11754;42.664;23.594;2023-12-20T06:34:23;95480.28;;;1.08;80.53
23172;BME280;11754;42.664;23.594;2023-12-20T06:36:48;95488.00;;;1.09;80.55
23172;BME280;11754;42.664;23.594;2023-12-20T06:39:13;95488.41;;;1.03;80.87
23172;BME280;11754;42.664;23.594;2023-12-20T06:41:39;95484.16;;;1.02;80.91
23172;BME280;11754;42.664;23.594;2023-12-20T06:44:05;95478.88;;;0.91;81.30
23172;BME280;11754;42.664;23.594;2023-12-20T06:46:30;95488.88;;;0.84;81.87
23172;BME280;11754;42.664;23.594;2023-12-20T06:48:56;95481.63;;;0.77;81.73
23172;BME280;11754;42.664;23.594;2023-12-20T06:51:21;95479.94;;;0.76;82.24
23172;BME280;11754;42.664;23.594;2023-12-20T06:57:35;95484.91;;;0.79;82.86
23172;BME280;11754;42.664;23.594;2023-12-20T07:00:02;95479.53;;;0.82;83.69
23172;BME280;11754;42.664;23.594;2023-12-20T07:02:28;95475.97;;;0.83;83.65
23172;BME280;11754;42.664;23.594;2023-12-20T07:04:55;95467.41;;;1.06;83.82
23172;BME280;11754;42.664;23.594;2023-12-20T07:07:21;95465.59;;;1.43;82.50
23172;BME280;11754;42.664;23.594;2023-12-20T07:09:57;95469.63;;;1.72;81.34
23172;BME280;11754;42.664;23.594;2023-12-20T07:12:22;95462.56;;;1.74;79.80
23172;BME280;11754;42.664;23.594;2023-12-20T07:14:48;95461.19;;;1.92;80.25
23172;BME280;11754;42.664;23.594;2023-12-20T07:17:13;95462.09;;;1.80;78.82
23172;BME280;11754;42.664;23.594;2023-12-20T07:19:41;95458.47;;;1.58;79.37
